createdAt,value
2022-08-28T00:00:35.538Z,23.05
2022-08-28T00:03:02.117Z,23.03
2022-08-28T00:05:30.652Z,23.01
2022-08-28T00:07:57.546Z,23.01
2022-08-28T00:10:24.366Z,23.01
2022-08-28T00:12:51.309Z,22.98
2022-08-28T00:15:20.601Z,22.96
2022-08-28T00:17:47.098Z,22.95
2022-08-28T00:20:13.976Z,22.92
2022-08-28T00:22:40.511Z,22.93
2022-08-28T00:25:07.886Z,22.93
2022-08-28T00:27:52.849Z,22.92
2022-08-28T00:30:30.517Z,22.92
2022-08-28T00:33:01.855Z,22.90
2022-08-28T00:35:28.439Z,22.90
2022-08-28T00:37:54.993Z,22.89
2022-08-28T00:40:28.748Z,22.88
2022-08-28T00:43:00.355Z,22.88
2022-08-28T00:45:27.550Z,22.87
2022-08-28T00:47:54.061Z,22.86
2022-08-28T00:50:22.239Z,22.85
2022-08-28T00:52:50.525Z,22.83
2022-08-28T00:55:22.409Z,22.81
2022-08-28T00:57:50.793Z,22.79
2022-08-28T01:00:34.980Z,22.79
2022-08-28T01:03:01.795Z,22.78
2022-08-28T01:05:28.810Z,22.76
2022-08-28T01:07:57.492Z,22.77
2022-08-28T01:10:24.507Z,22.75
2022-08-28T01:12:51.202Z,22.74
2022-08-28T01:15:20.629Z,22.73
2022-08-28T01:17:49.028Z,22.71
2022-08-28T01:20:17.369Z,22.73
2022-08-28T01:23:11.931Z,22.69
2022-08-28T01:25:38.475Z,22.69
2022-08-28T01:28:07.093Z,22.70
2022-08-28T01:30:33.602Z,22.65
2022-08-28T01:33:00.086Z,22.70
2022-08-28T01:35:28.915Z,22.68
2022-08-28T01:37:55.843Z,22.67
2022-08-28T01:40:36.608Z,22.65
2022-08-28T01:43:14.008Z,22.66
2022-08-28T01:45:41.682Z,22.63
2022-08-28T01:48:08.272Z,22.61
2022-08-28T01:50:35.049Z,22.59
2022-08-28T01:53:02.015Z,22.56
2022-08-28T01:55:28.706Z,22.57
2022-08-28T01:57:56.164Z,22.57
2022-08-28T02:00:26.904Z,22.59
2022-08-28T02:02:55.981Z,22.55
2022-08-28T02:05:24.002Z,22.55
2022-08-28T02:07:52.056Z,22.54
2022-08-28T02:10:19.329Z,22.54
2022-08-28T02:12:45.818Z,22.54
2022-08-28T02:15:13.028Z,22.53
2022-08-28T02:17:39.770Z,22.53
2022-08-28T02:20:07.348Z,22.48
2022-08-28T02:22:33.834Z,22.51
2022-08-28T02:25:00.325Z,22.50
2022-08-28T02:27:26.863Z,22.48
2022-08-28T02:29:53.531Z,22.49
2022-08-28T02:32:20.027Z,22.48
2022-08-28T02:34:46.531Z,22.47
2022-08-28T02:37:13.667Z,22.46
2022-08-28T02:39:40.238Z,22.47
2022-08-28T02:42:06.759Z,22.48
2022-08-28T02:44:33.244Z,22.47
2022-08-28T02:47:00.677Z,22.44
2022-08-28T02:49:27.189Z,22.42
2022-08-28T02:52:02.682Z,22.40
2022-08-28T02:54:29.452Z,22.38
2022-08-28T02:56:55.979Z,22.39
2022-08-28T02:59:22.841Z,22.36
2022-08-28T03:01:49.482Z,22.35
2022-08-28T03:04:16.283Z,22.35
2022-08-28T03:06:42.813Z,22.34
2022-08-28T03:09:09.309Z,22.33
2022-08-28T03:11:36.916Z,22.32
2022-08-28T03:14:04.775Z,22.28
2022-08-28T03:16:32.382Z,22.27
2022-08-28T03:18:59.083Z,22.28
2022-08-28T03:21:25.579Z,22.27
2022-08-28T03:23:52.066Z,22.26
2022-08-28T03:26:19.568Z,22.27
2022-08-28T03:28:51.455Z,22.28
2022-08-28T03:31:20.906Z,22.29
2022-08-28T03:33:47.732Z,22.28
2022-08-28T03:36:16.545Z,22.30
2022-08-28T03:38:43.031Z,22.27
2022-08-28T03:41:14.136Z,22.27
2022-08-28T03:43:41.019Z,22.26
2022-08-28T03:46:07.687Z,22.28
2022-08-28T03:48:36.278Z,22.27
2022-08-28T03:51:10.040Z,22.25
2022-08-28T03:53:37.167Z,22.23
2022-08-28T03:56:08.160Z,22.24
2022-08-28T03:58:34.642Z,22.20
2022-08-28T04:01:01.182Z,22.18
2022-08-28T04:03:28.261Z,22.17
2022-08-28T04:05:54.832Z,22.17
2022-08-28T04:08:22.437Z,22.17
2022-08-28T04:10:49.234Z,22.17
2022-08-28T04:13:16.939Z,22.17
2022-08-28T04:15:43.454Z,22.16
2022-08-28T04:18:10.390Z,22.17
2022-08-28T04:20:37.820Z,22.17
2022-08-28T04:23:05.851Z,22.17
2022-08-28T04:25:32.350Z,22.18
2022-08-28T04:27:58.887Z,22.17
2022-08-28T04:30:25.380Z,22.16
2022-08-28T04:32:51.879Z,22.16
2022-08-28T04:35:18.372Z,22.14
2022-08-28T04:37:45.166Z,22.15
2022-08-28T04:40:12.931Z,22.14
2022-08-28T04:42:40.087Z,22.13
2022-08-28T04:45:06.978Z,22.11
2022-08-28T04:47:37.177Z,22.09
2022-08-28T04:50:04.432Z,22.08
2022-08-28T04:52:30.918Z,22.08
2022-08-28T04:54:57.664Z,22.08
2022-08-28T04:57:24.489Z,22.09
2022-08-28T04:59:50.980Z,22.08
2022-08-28T05:02:17.500Z,22.06
2022-08-28T05:04:44.086Z,22.09
2022-08-28T05:07:10.592Z,22.07
2022-08-28T05:09:37.079Z,22.07
2022-08-28T05:12:04.331Z,22.06
2022-08-28T05:14:30.837Z,22.07
2022-08-28T05:16:57.693Z,22.08
2022-08-28T05:19:25.103Z,22.09
2022-08-28T05:21:51.666Z,22.11
2022-08-28T05:24:18.372Z,22.09
2022-08-28T05:26:48.227Z,22.12
2022-08-28T05:29:16.608Z,22.13
2022-08-28T05:31:43.133Z,22.12
2022-08-28T05:34:10.485Z,22.13
2022-08-28T05:36:37.595Z,22.14
2022-08-28T05:39:06.449Z,22.12
2022-08-28T05:41:33.104Z,22.10
2022-08-28T05:44:01.138Z,22.12
2022-08-28T05:46:28.310Z,22.12
2022-08-28T05:48:55.450Z,22.12
2022-08-28T05:51:22.811Z,22.13
2022-08-28T05:53:49.876Z,22.13
2022-08-28T05:56:22.107Z,22.10
2022-08-28T05:58:48.600Z,22.09
2022-08-28T06:01:22.936Z,22.11
2022-08-28T06:03:55.175Z,22.12
2022-08-28T06:06:22.498Z,22.11
2022-08-28T06:08:58.213Z,22.12
2022-08-28T06:11:25.989Z,22.11
2022-08-28T06:13:53.310Z,22.13
2022-08-28T06:16:20.301Z,22.14
2022-08-28T06:18:46.921Z,22.16
2022-08-28T06:21:13.434Z,22.19
2022-08-28T06:23:41.165Z,22.24
2022-08-28T06:26:07.651Z,22.32
2022-08-28T06:28:34.207Z,22.29
2022-08-28T06:31:23.249Z,22.34
2022-08-28T06:33:48.974Z,22.38
2022-08-28T06:36:15.518Z,22.41
2022-08-28T06:38:46.505Z,22.41
2022-08-28T06:41:13.201Z,22.40
2022-08-28T06:43:39.766Z,22.44
2022-08-28T06:46:06.507Z,22.45
2022-08-28T06:48:33.082Z,22.51
2022-08-28T06:50:59.745Z,22.51
2022-08-28T06:53:29.472Z,22.55
2022-08-28T06:56:08.560Z,22.57
2022-08-28T06:58:36.688Z,22.58
2022-08-28T07:01:04.613Z,22.59
2022-08-28T07:03:31.222Z,22.59
2022-08-28T07:05:58.314Z,22.60
2022-08-28T07:08:25.815Z,22.67
2022-08-28T07:10:53.803Z,22.68
2022-08-28T07:13:21.214Z,22.67
2022-08-28T07:15:47.792Z,22.64
2022-08-28T07:18:14.779Z,22.61
2022-08-28T07:20:41.404Z,22.60
2022-08-28T07:23:07.897Z,21.99
2022-08-28T07:25:34.395Z,21.76
2022-08-28T07:28:00.886Z,21.57
2022-08-28T07:30:27.368Z,21.36
2022-08-28T07:32:53.850Z,21.32
2022-08-28T07:35:20.911Z,21.38
2022-08-28T07:37:47.525Z,21.42
2022-08-28T07:40:14.136Z,21.51
2022-08-28T07:42:58.967Z,21.45
2022-08-28T07:45:26.125Z,21.52
2022-08-28T07:47:52.799Z,21.67
2022-08-28T07:50:19.422Z,21.69
2022-08-28T07:52:45.964Z,21.45
2022-08-28T07:55:12.451Z,21.53
2022-08-28T07:57:38.942Z,21.35
2022-08-28T08:00:06.453Z,21.25
2022-08-28T08:02:32.952Z,21.49
2022-08-28T08:04:59.435Z,21.32
2022-08-28T08:07:25.927Z,21.51
2022-08-28T08:09:52.423Z,21.53
2022-08-28T08:12:18.964Z,21.58
2022-08-28T08:14:45.621Z,21.68
2022-08-28T08:17:12.147Z,21.67
2022-08-28T08:19:39.269Z,21.52
2022-08-28T08:22:06.210Z,21.48
2022-08-28T08:24:33.745Z,21.63
2022-08-28T08:27:01.122Z,21.60
2022-08-28T08:29:33.767Z,21.44
2022-08-28T08:32:05.268Z,21.56
2022-08-28T08:34:33.847Z,21.63
2022-08-28T08:37:00.446Z,21.71
2022-08-28T08:39:27.204Z,21.84
2022-08-28T08:41:56.854Z,21.73
2022-08-28T08:44:43.648Z,21.74
2022-08-28T08:47:19.507Z,21.77
2022-08-28T08:50:21.256Z,21.76
2022-08-28T08:53:09.699Z,21.63
2022-08-28T08:55:42.547Z,21.58
2022-08-28T08:58:11.382Z,21.85
2022-08-28T09:00:58.144Z,21.89
2022-08-28T09:03:27.551Z,22.09
2022-08-28T09:06:04.172Z,22.18
2022-08-28T09:08:33.300Z,22.13
2022-08-28T09:11:03.210Z,22.12
2022-08-28T09:13:51.989Z,21.92
2022-08-28T09:16:27.472Z,21.81
2022-08-28T09:18:56.908Z,22.05
2022-08-28T09:21:29.575Z,22.34
2022-08-28T09:23:56.739Z,22.52
2022-08-28T09:26:24.794Z,22.61
2022-08-28T09:29:23.574Z,22.67
2022-08-28T09:31:50.367Z,22.66
2022-08-28T09:34:26.533Z,22.67
2022-08-28T09:36:53.775Z,22.67
2022-08-28T09:39:22.383Z,22.67
2022-08-28T09:42:11.758Z,22.69
2022-08-28T09:44:51.361Z,22.74
2022-08-28T09:47:46.186Z,22.75
2022-08-28T09:50:36.207Z,22.77
2022-08-28T09:53:08.638Z,22.80
2022-08-28T09:55:59.479Z,22.84
2022-08-28T09:58:42.515Z,22.87
2022-08-28T10:01:18.079Z,22.84
2022-08-28T10:03:53.332Z,22.84
2022-08-28T10:06:28.413Z,22.88
2022-08-28T10:09:06.306Z,22.91
2022-08-28T10:11:47.738Z,23.04
2022-08-28T10:14:29.795Z,23.12
2022-08-28T10:17:16.093Z,23.22
2022-08-28T10:20:20.418Z,23.35
2022-08-28T10:23:04.814Z,23.37
2022-08-28T10:25:49.822Z,23.49
2022-08-28T10:28:16.336Z,23.56
2022-08-28T10:31:00.156Z,23.56
2022-08-28T10:34:02.814Z,23.66
2022-08-28T10:36:33.580Z,23.71
2022-08-28T10:39:19.841Z,23.80
2022-08-28T10:41:49.341Z,23.81
2022-08-28T10:44:20.058Z,23.77
2022-08-28T10:46:49.811Z,23.85
2022-08-28T10:49:27.003Z,23.90
2022-08-28T10:52:05.481Z,23.80
2022-08-28T10:54:45.000Z,23.81
2022-08-28T10:57:40.769Z,23.89
2022-08-28T11:00:13.726Z,23.89
2022-08-28T11:02:56.973Z,23.84
2022-08-28T11:05:26.063Z,23.83
2022-08-28T11:07:54.856Z,23.84
2022-08-28T11:10:34.872Z,23.91
2022-08-28T11:13:01.390Z,23.98
2022-08-28T11:15:34.206Z,24.02
2022-08-28T11:18:15.742Z,24.04
2022-08-28T11:20:43.449Z,24.04
2022-08-28T11:23:14.089Z,23.98
2022-08-28T11:25:58.618Z,23.92
2022-08-28T11:28:25.506Z,23.97
2022-08-28T11:30:58.104Z,24.00
2022-08-28T11:33:38.373Z,23.90
2022-08-28T11:36:29.701Z,24.01
2022-08-28T11:38:56.091Z,24.04
2022-08-28T11:41:33.179Z,24.01
2022-08-28T11:43:59.499Z,23.98
2022-08-28T11:46:32.695Z,24.02
2022-08-28T11:49:00.611Z,24.00
2022-08-28T11:52:04.808Z,24.03
2022-08-28T11:55:02.622Z,24.09
2022-08-28T12:00:55.199Z,24.09
2022-08-28T12:03:42.498Z,24.11
2022-08-28T12:06:09.066Z,24.17
2022-08-28T12:08:58.532Z,24.06
2022-08-28T12:11:40.156Z,24.06
2022-08-28T12:14:10.348Z,24.09
2022-08-28T12:17:29.159Z,24.09
2022-08-28T12:20:10.742Z,24.15
2022-08-28T12:22:47.178Z,24.14
2022-08-28T12:25:44.158Z,24.14
2022-08-28T12:28:21.923Z,24.15
2022-08-28T12:30:57.935Z,24.17
2022-08-28T12:33:47.187Z,23.97
2022-08-28T12:36:15.998Z,23.96
2022-08-28T12:38:48.411Z,23.79
2022-08-28T12:41:16.863Z,23.95
2022-08-28T12:43:46.828Z,24.01
2022-08-28T12:46:20.687Z,23.95
2022-08-28T12:48:48.306Z,23.93
2022-08-28T12:51:19.465Z,23.87
2022-08-28T12:53:50.685Z,23.85
2022-08-28T12:56:18.255Z,23.72
2022-08-28T12:58:44.964Z,23.63
2022-08-28T13:01:15.430Z,23.49
2022-08-28T13:03:49.420Z,23.69
2022-08-28T13:06:22.393Z,23.56
2022-08-28T13:08:48.879Z,23.67
2022-08-28T13:11:19.558Z,23.55
2022-08-28T13:13:46.805Z,23.81
2022-08-28T13:16:13.865Z,23.77
2022-08-28T13:18:46.427Z,23.76
2022-08-28T13:21:32.739Z,23.80
2022-08-28T13:24:20.234Z,23.69
2022-08-28T13:26:46.797Z,23.71
2022-08-28T13:29:23.662Z,23.60
2022-08-28T13:32:05.214Z,23.66
2022-08-28T13:34:36.154Z,23.58
2022-08-28T13:37:07.237Z,23.58
2022-08-28T13:39:41.334Z,23.58
2022-08-28T13:42:12.061Z,23.63
2022-08-28T13:44:48.549Z,23.66
2022-08-28T13:47:15.619Z,23.72
2022-08-28T13:49:42.765Z,23.61
2022-08-28T13:52:09.529Z,23.47
2022-08-28T13:54:36.285Z,23.61
2022-08-28T13:57:02.915Z,23.55
2022-08-28T13:59:29.560Z,23.62
2022-08-28T14:02:19.739Z,23.47
2022-08-28T14:04:46.286Z,23.50
2022-08-28T14:07:13.441Z,23.43
2022-08-28T14:09:40.075Z,23.58
2022-08-28T14:12:08.312Z,23.58
2022-08-28T14:14:35.373Z,23.47
2022-08-28T14:17:01.917Z,23.54
2022-08-28T14:19:28.795Z,23.62
2022-08-28T14:21:55.419Z,23.58
2022-08-28T14:24:22.075Z,23.53
2022-08-28T14:26:51.479Z,23.56
2022-08-28T14:29:18.319Z,23.58
2022-08-28T14:31:45.003Z,23.55
2022-08-28T14:34:17.785Z,23.46
2022-08-28T14:36:44.346Z,23.48
2022-08-28T14:39:12.084Z,23.54
2022-08-28T14:41:42.159Z,23.53
2022-08-28T14:44:09.196Z,23.53
2022-08-28T14:46:36.089Z,23.56
2022-08-28T14:49:08.388Z,23.54
2022-08-28T14:51:35.357Z,23.56
2022-08-28T14:54:01.975Z,23.55
2022-08-28T14:56:29.002Z,23.56
2022-08-28T14:58:58.573Z,23.55
2022-08-28T15:01:30.797Z,23.51
2022-08-28T15:04:07.761Z,23.50
2022-08-28T15:06:35.011Z,23.50
2022-08-28T15:09:01.553Z,23.51
2022-08-28T15:11:28.470Z,23.51
2022-08-28T15:13:55.250Z,23.50
2022-08-28T15:16:29.923Z,23.52
2022-08-28T15:18:57.436Z,23.51
2022-08-28T15:21:25.089Z,23.51
2022-08-28T15:23:52.307Z,23.50
2022-08-28T15:26:19.332Z,23.45
2022-08-28T15:28:45.864Z,23.49
2022-08-28T15:31:12.481Z,23.53
2022-08-28T15:33:43.313Z,23.55
2022-08-28T15:36:12.040Z,23.56
2022-08-28T15:38:57.168Z,23.57
2022-08-28T15:41:24.608Z,23.57
2022-08-28T15:44:14.442Z,23.58
2022-08-28T15:46:41.694Z,23.56
2022-08-28T15:49:09.347Z,23.53
2022-08-28T15:51:37.089Z,23.53
2022-08-28T15:54:04.219Z,23.54
2022-08-28T15:56:30.760Z,23.54
2022-08-28T15:58:57.259Z,23.56
2022-08-28T16:01:23.898Z,23.56
2022-08-28T16:03:50.472Z,23.57
2022-08-28T16:06:18.551Z,23.59
2022-08-28T16:08:45.044Z,23.58
2022-08-28T16:11:18.946Z,23.58
2022-08-28T16:13:45.449Z,23.60
2022-08-28T16:16:12.035Z,23.62
2022-08-28T16:18:38.654Z,23.63
2022-08-28T16:21:05.329Z,23.63
2022-08-28T16:23:32.449Z,23.61
2022-08-28T16:25:59.389Z,23.63
2022-08-28T16:28:26.083Z,23.66
2022-08-28T16:30:53.732Z,23.65
2022-08-28T16:33:22.132Z,23.64
2022-08-28T16:35:51.549Z,23.62
2022-08-28T16:38:23.006Z,23.64
2022-08-28T16:40:49.843Z,23.63
2022-08-28T16:43:16.403Z,23.42
2022-08-28T16:45:44.018Z,23.03
2022-08-28T16:48:12.589Z,22.84
2022-08-28T16:50:40.200Z,22.73
2022-08-28T16:53:07.274Z,22.75
2022-08-28T16:55:33.939Z,22.74
2022-08-28T16:58:00.505Z,22.62
2022-08-28T17:00:27.179Z,22.69
2022-08-28T17:02:53.898Z,22.62
2022-08-28T17:05:20.524Z,22.62
2022-08-28T17:07:47.636Z,22.50
2022-08-28T17:10:15.720Z,22.55
2022-08-28T17:12:42.232Z,22.43
2022-08-28T17:15:08.991Z,22.44
2022-08-28T17:17:37.939Z,22.43
2022-08-28T17:20:04.990Z,22.48
2022-08-28T17:22:32.079Z,22.45
2022-08-28T17:25:03.391Z,22.39
2022-08-28T17:27:31.059Z,22.36
2022-08-28T17:29:58.169Z,22.26
2022-08-28T17:32:24.667Z,22.24
2022-08-28T17:34:51.172Z,22.32
2022-08-28T17:37:19.080Z,22.17
2022-08-28T17:39:45.588Z,22.15
2022-08-28T17:42:12.083Z,22.06
2022-08-28T17:44:38.610Z,21.94
2022-08-28T17:47:05.836Z,21.87
2022-08-28T17:49:32.399Z,22.00
2022-08-28T17:51:58.893Z,21.92
2022-08-28T17:54:25.643Z,21.90
2022-08-28T17:56:52.715Z,21.78
2022-08-28T17:59:19.320Z,21.85
2022-08-28T18:01:46.750Z,21.75
2022-08-28T18:04:14.095Z,21.73
2022-08-28T18:06:40.740Z,22.04
2022-08-28T18:09:07.933Z,22.34
2022-08-28T18:11:34.438Z,22.45
2022-08-28T18:14:01.072Z,22.50
2022-08-28T18:16:31.540Z,22.50
2022-08-28T18:18:59.263Z,22.53
2022-08-28T18:21:25.756Z,22.52
2022-08-28T18:23:52.271Z,22.52
2022-08-28T18:26:18.770Z,22.53
2022-08-28T18:28:45.278Z,22.52
2022-08-28T18:31:11.857Z,22.51
2022-08-28T18:33:38.419Z,22.52
2022-08-28T18:36:09.015Z,22.52
2022-08-28T18:38:35.703Z,22.53
2022-08-28T18:41:02.898Z,22.52
2022-08-28T18:43:29.483Z,22.52
2022-08-28T18:45:56.034Z,22.54
2022-08-28T18:48:22.547Z,22.55
2022-08-28T18:50:49.814Z,22.57
2022-08-28T18:53:17.331Z,22.51
2022-08-28T18:55:43.994Z,22.53
2022-08-28T18:58:11.154Z,22.56
2022-08-28T19:00:42.012Z,22.51
2022-08-28T19:03:09.254Z,22.50
2022-08-28T19:05:35.906Z,22.49
2022-08-28T19:08:02.429Z,22.49
2022-08-28T19:10:34.025Z,22.47
2022-08-28T19:13:01.159Z,22.49
2022-08-28T19:15:28.266Z,22.47
2022-08-28T19:17:54.788Z,22.47
2022-08-28T19:20:21.378Z,22.46
2022-08-28T19:22:48.712Z,22.46
2022-08-28T19:25:27.453Z,22.44
2022-08-28T19:27:58.978Z,22.44
2022-08-28T19:30:26.200Z,22.45
2022-08-28T19:32:52.714Z,22.43
2022-08-28T19:35:19.425Z,22.41
2022-08-28T19:37:46.008Z,22.40
2022-08-28T19:40:12.876Z,22.44
2022-08-28T19:42:39.679Z,22.49
2022-08-28T19:45:07.307Z,22.49
2022-08-28T19:47:35.691Z,22.47
2022-08-28T19:50:03.549Z,22.47
2022-08-28T19:52:30.092Z,22.50
2022-08-28T19:54:56.618Z,22.40
2022-08-28T19:57:23.094Z,22.40
2022-08-28T19:59:49.631Z,22.41
2022-08-28T20:02:16.202Z,22.43
2022-08-28T20:04:42.858Z,22.44
2022-08-28T20:07:09.443Z,22.42
2022-08-28T20:09:35.938Z,22.41
2022-08-28T20:12:03.625Z,22.43
2022-08-28T20:14:30.195Z,22.42
2022-08-28T20:16:57.715Z,22.40
2022-08-28T20:19:24.349Z,22.40
2022-08-28T20:21:51.437Z,22.41
2022-08-28T20:24:21.770Z,22.38
2022-08-28T20:26:48.688Z,22.38
2022-08-28T20:29:15.331Z,22.39
2022-08-28T20:31:43.762Z,22.42
2022-08-28T20:34:10.345Z,22.35
2022-08-28T20:36:36.837Z,22.41
2022-08-28T20:39:07.044Z,22.40
2022-08-28T20:41:33.538Z,22.39
2022-08-28T20:44:01.765Z,22.39
2022-08-28T20:46:30.544Z,22.39
2022-08-28T20:48:57.079Z,22.39
2022-08-28T20:51:43.529Z,22.38
2022-08-28T20:54:10.185Z,22.38
2022-08-28T20:56:36.689Z,22.42
2022-08-28T20:59:03.339Z,22.40
2022-08-28T21:01:29.848Z,22.37
2022-08-28T21:03:56.443Z,22.33
2022-08-28T21:06:22.952Z,22.36
2022-08-28T21:08:50.242Z,22.34
2022-08-28T21:11:17.205Z,22.35
2022-08-28T21:13:43.698Z,22.35
2022-08-28T21:16:10.181Z,22.34
2022-08-28T21:18:36.677Z,22.33
2022-08-28T21:21:06.491Z,22.32
2022-08-28T21:23:33.154Z,22.32
2022-08-28T21:25:59.740Z,22.34
2022-08-28T21:28:26.309Z,22.36
2022-08-28T21:30:54.372Z,22.33
2022-08-28T21:33:21.023Z,22.29
2022-08-28T21:35:47.538Z,22.28
2022-08-28T21:38:14.157Z,22.29
2022-08-28T21:40:41.068Z,22.28
2022-08-28T21:43:07.687Z,22.28
2022-08-28T21:45:34.225Z,22.27
2022-08-28T21:48:00.951Z,22.26
2022-08-28T21:50:30.282Z,22.26
2022-08-28T21:52:57.973Z,22.30
2022-08-28T21:55:24.939Z,22.29
2022-08-28T21:57:51.421Z,22.31
2022-08-28T22:00:20.135Z,22.32
2022-08-28T22:02:46.718Z,22.30
2022-08-28T22:05:14.943Z,22.31
2022-08-28T22:07:42.491Z,22.28
2022-08-28T22:10:09.264Z,22.30
2022-08-28T22:12:35.851Z,22.29
2022-08-28T22:15:02.346Z,22.29
2022-08-28T22:17:28.822Z,22.28
2022-08-28T22:19:55.358Z,22.29
2022-08-28T22:22:40.580Z,22.29
2022-08-28T22:25:07.752Z,22.29
2022-08-28T22:27:34.653Z,22.27
2022-08-28T22:30:01.174Z,22.25
2022-08-28T22:32:27.990Z,22.25
2022-08-28T22:34:55.196Z,22.22
2022-08-28T22:37:22.907Z,22.20
2022-08-28T22:39:49.424Z,22.18
2022-08-28T22:42:15.944Z,22.17
2022-08-28T22:44:42.434Z,22.17
2022-08-28T22:47:08.971Z,22.16
2022-08-28T22:49:35.966Z,22.15
2022-08-28T22:52:06.271Z,22.15
2022-08-28T22:54:33.191Z,22.14
2022-08-28T22:56:59.685Z,22.13
2022-08-28T22:59:27.947Z,22.12
2022-08-28T23:01:54.553Z,22.09
2022-08-28T23:04:21.195Z,22.09
2022-08-28T23:06:47.714Z,22.08
2022-08-28T23:09:14.276Z,22.08
2022-08-28T23:11:40.764Z,22.07
2022-08-28T23:14:07.272Z,22.06
2022-08-28T23:16:35.167Z,22.07
2022-08-28T23:19:08.643Z,22.07
2022-08-28T23:21:36.274Z,22.07
2022-08-28T23:24:09.906Z,22.06
2022-08-28T23:26:36.404Z,22.05
2022-08-28T23:29:02.920Z,22.05
2022-08-28T23:31:29.433Z,22.05
2022-08-28T23:33:55.967Z,22.05
2022-08-28T23:36:22.516Z,22.02
2022-08-28T23:38:49.701Z,22.01
2022-08-28T23:41:18.475Z,22.00
2022-08-28T23:43:45.545Z,21.97
2022-08-28T23:46:18.012Z,21.97
2022-08-28T23:48:49.533Z,21.97
2022-08-28T23:51:16.392Z,21.96
2022-08-28T23:53:42.907Z,21.95
2022-08-28T23:56:09.725Z,21.94
2022-08-28T23:58:36.278Z,21.92
